createdAt,value
2023-05-21T00:02:19.885Z,15.45
2023-05-21T00:04:46.532Z,15.46
2023-05-21T00:07:13.472Z,15.43
2023-05-21T00:09:39.986Z,15.42
2023-05-21T00:12:07.881Z,15.43
2023-05-21T00:14:35.137Z,15.40
2023-05-21T00:17:01.605Z,15.38
2023-05-21T00:19:28.155Z,15.37
2023-05-21T00:21:54.794Z,15.38
2023-05-21T00:24:21.251Z,15.35
2023-05-21T00:26:47.693Z,15.35
2023-05-21T00:29:14.214Z,15.34
2023-05-21T00:31:40.911Z,15.29
2023-05-21T00:34:07.455Z,15.27
2023-05-21T00:36:34.635Z,15.25
2023-05-21T00:39:02.366Z,15.30
2023-05-21T00:41:30.281Z,15.28
2023-05-21T00:44:00.348Z,15.26
2023-05-21T00:46:28.574Z,15.25
2023-05-21T00:48:58.008Z,15.23
2023-05-21T00:51:25.927Z,15.23
2023-05-21T00:53:53.102Z,15.24
2023-05-21T00:56:22.739Z,15.21
2023-05-21T00:58:51.861Z,15.16
2023-05-21T01:01:19.486Z,15.12
2023-05-21T01:03:48.757Z,15.14
2023-05-21T01:06:16.067Z,15.14
2023-05-21T01:08:42.958Z,15.15
2023-05-21T01:11:10.809Z,15.14
2023-05-21T01:13:40.900Z,15.11
2023-05-21T01:16:09.361Z,15.10
2023-05-21T01:18:37.763Z,15.09
2023-05-21T01:21:05.092Z,15.07
2023-05-21T01:23:31.937Z,15.07
2023-05-21T01:25:58.552Z,15.04
2023-05-21T01:28:25.069Z,15.04
2023-05-21T01:30:51.923Z,15.02
2023-05-21T01:33:29.552Z,15.00
2023-05-21T01:36:02.398Z,14.96
2023-05-21T01:38:43.632Z,14.90
2023-05-21T01:41:14.124Z,14.89
2023-05-21T01:43:43.418Z,14.85
2023-05-21T01:46:12.948Z,14.83
2023-05-21T01:48:40.175Z,14.79
2023-05-21T01:51:06.740Z,14.79
2023-05-21T01:53:33.250Z,14.80
2023-05-21T01:56:00.771Z,14.80
2023-05-21T01:58:27.251Z,14.79
2023-05-21T02:00:53.732Z,14.75
2023-05-21T02:03:20.823Z,14.77
2023-05-21T02:05:47.702Z,14.76
2023-05-21T02:08:15.169Z,14.74
2023-05-21T02:10:42.038Z,14.73
2023-05-21T02:13:08.578Z,14.69
2023-05-21T02:15:35.459Z,14.67
2023-05-21T02:18:02.464Z,14.65
2023-05-21T02:20:29.005Z,14.64
2023-05-21T02:22:55.599Z,14.62
2023-05-21T02:25:21.962Z,14.63
2023-05-21T02:27:52.710Z,14.57
2023-05-21T02:30:19.257Z,14.51
2023-05-21T02:32:45.779Z,14.51
2023-05-21T02:35:13.224Z,14.50
2023-05-21T02:37:40.890Z,14.50
2023-05-21T02:40:09.726Z,14.48
2023-05-21T02:42:39.274Z,14.46
2023-05-21T02:45:11.567Z,14.43
2023-05-21T02:47:38.701Z,14.44
2023-05-21T02:50:07.388Z,14.43
2023-05-21T02:52:33.835Z,14.43
2023-05-21T02:55:00.328Z,14.44
2023-05-21T02:57:26.751Z,14.45
2023-05-21T02:59:53.151Z,14.41
2023-05-21T03:02:19.575Z,14.39
2023-05-21T03:04:46.503Z,14.38
2023-05-21T03:07:20.105Z,14.37
2023-05-21T03:09:47.159Z,14.35
2023-05-21T03:12:13.768Z,14.33
2023-05-21T03:14:40.361Z,14.33
2023-05-21T03:17:07.749Z,14.32
2023-05-21T03:19:35.861Z,14.32
2023-05-21T03:22:03.366Z,14.31
2023-05-21T03:24:33.122Z,14.28
2023-05-21T03:27:01.462Z,14.28
2023-05-21T03:29:28.374Z,14.32
2023-05-21T03:31:55.618Z,14.30
2023-05-21T03:34:22.418Z,14.32
2023-05-21T03:36:49.464Z,14.31
2023-05-21T03:39:16.165Z,14.31
2023-05-21T03:41:43.026Z,14.32
2023-05-21T03:44:09.693Z,14.32
2023-05-21T03:46:36.339Z,14.35
2023-05-21T03:49:02.880Z,14.32
2023-05-21T03:51:30.798Z,14.34
2023-05-21T03:53:59.069Z,14.35
2023-05-21T03:56:26.294Z,14.34
2023-05-21T03:58:53.004Z,14.36
2023-05-21T04:01:20.020Z,14.35
2023-05-21T04:03:47.697Z,14.36
2023-05-21T04:06:14.336Z,14.34
2023-05-21T04:08:40.907Z,14.35
2023-05-21T04:11:07.444Z,14.34
2023-05-21T04:13:33.877Z,14.32
2023-05-21T04:16:00.692Z,14.32
2023-05-21T04:18:27.200Z,14.29
2023-05-21T04:20:53.874Z,14.27
2023-05-21T04:23:23.336Z,14.25
2023-05-21T04:25:50.822Z,14.20
2023-05-21T04:28:21.025Z,14.24
2023-05-21T04:30:48.050Z,14.27
2023-05-21T04:33:18.134Z,14.29
2023-05-21T04:35:47.302Z,14.30
2023-05-21T04:38:14.069Z,14.34
2023-05-21T04:40:40.689Z,14.34
2023-05-21T04:43:08.035Z,14.32
2023-05-21T04:45:34.523Z,14.33
2023-05-21T04:48:01.227Z,14.33
2023-05-21T04:50:30.585Z,14.31
2023-05-21T04:52:58.886Z,14.36
2023-05-21T04:55:25.930Z,14.39
2023-05-21T04:57:52.843Z,14.41
2023-05-21T05:00:19.776Z,14.40
2023-05-21T05:02:46.473Z,14.44
2023-05-21T05:05:12.985Z,14.45
2023-05-21T05:07:39.430Z,14.49
2023-05-21T05:10:06.323Z,14.53
2023-05-21T05:12:32.798Z,14.52
2023-05-21T05:14:59.186Z,14.50
2023-05-21T05:17:25.731Z,14.54
2023-05-21T05:19:53.112Z,14.56
2023-05-21T05:22:19.685Z,14.62
2023-05-21T05:24:46.143Z,14.64
2023-05-21T05:27:12.581Z,14.64
2023-05-21T05:29:40.031Z,14.66
2023-05-21T05:32:07.259Z,14.72
2023-05-21T05:34:33.737Z,14.79
2023-05-21T05:37:00.257Z,14.82
2023-05-21T05:39:26.712Z,14.80
2023-05-21T05:41:53.146Z,14.86
2023-05-21T05:44:19.655Z,14.83
2023-05-21T05:46:46.234Z,14.90
2023-05-21T05:49:13.862Z,14.97
2023-05-21T05:51:40.968Z,14.99
2023-05-21T05:54:07.477Z,15.01
2023-05-21T05:56:34.055Z,15.07
2023-05-21T05:59:00.491Z,15.05
2023-05-21T06:01:26.921Z,15.06
2023-05-21T06:03:53.415Z,15.11
2023-05-21T06:06:20.244Z,15.14
2023-05-21T06:08:46.748Z,15.22
2023-05-21T06:11:17.074Z,15.41
2023-05-21T06:13:43.579Z,15.59
2023-05-21T06:16:10.387Z,15.79
2023-05-21T06:18:37.561Z,15.92
2023-05-21T06:21:04.084Z,16.05
2023-05-21T06:23:32.463Z,16.31
2023-05-21T06:25:58.967Z,16.70
2023-05-21T06:28:25.497Z,17.35
2023-05-21T06:30:51.976Z,17.45
2023-05-21T06:33:18.537Z,17.37
2023-05-21T06:35:45.006Z,17.43
2023-05-21T06:38:11.653Z,17.33
2023-05-21T06:40:38.140Z,17.29
2023-05-21T06:43:05.258Z,17.37
2023-05-21T06:45:31.757Z,17.51
2023-05-21T06:47:58.297Z,17.63
2023-05-21T06:50:24.772Z,17.70
2023-05-21T06:52:51.241Z,17.72
2023-05-21T06:55:17.714Z,17.58
2023-05-21T06:57:44.163Z,17.67
2023-05-21T07:00:12.713Z,17.67
2023-05-21T07:02:39.570Z,17.65
2023-05-21T07:05:06.424Z,17.66
2023-05-21T07:07:34.732Z,17.55
2023-05-21T07:10:01.229Z,17.67
2023-05-21T07:12:27.729Z,17.66
2023-05-21T07:14:54.442Z,17.66
2023-05-21T07:17:20.947Z,17.74
2023-05-21T07:19:47.412Z,17.87
2023-05-21T07:22:13.944Z,18.03
2023-05-21T07:24:40.383Z,18.14
2023-05-21T07:27:17.863Z,18.33
2023-05-21T07:29:51.722Z,18.45
2023-05-21T07:32:18.183Z,18.61
2023-05-21T07:34:44.700Z,18.70
2023-05-21T07:37:11.234Z,18.92
2023-05-21T07:39:37.849Z,18.98
2023-05-21T07:42:04.496Z,19.09
2023-05-21T07:44:31.979Z,19.20
2023-05-21T07:46:58.492Z,19.19
2023-05-21T07:49:24.918Z,19.32
2023-05-21T07:51:51.641Z,19.43
2023-05-21T07:54:18.256Z,19.46
2023-05-21T07:56:44.704Z,19.59
2023-05-21T07:59:13.751Z,19.74
2023-05-21T08:01:41.110Z,19.85
2023-05-21T08:04:07.886Z,19.98
2023-05-21T08:06:34.921Z,20.19
2023-05-21T08:09:04.021Z,20.26
2023-05-21T08:11:30.699Z,20.20
2023-05-21T08:13:57.232Z,20.25
2023-05-21T08:16:24.064Z,20.27
2023-05-21T08:18:50.986Z,20.21
2023-05-21T08:21:17.788Z,20.29
2023-05-21T08:23:44.700Z,20.30
2023-05-21T08:26:11.790Z,20.31
2023-05-21T08:28:39.027Z,20.36
2023-05-21T08:31:07.548Z,20.48
2023-05-21T08:33:37.196Z,20.60
2023-05-21T08:36:05.444Z,20.35
2023-05-21T08:38:32.055Z,20.26
2023-05-21T08:40:59.730Z,20.23
2023-05-21T08:43:29.796Z,20.31
2023-05-21T08:45:59.223Z,20.53
2023-05-21T08:48:26.042Z,20.70
2023-05-21T08:50:54.109Z,20.66
2023-05-21T08:53:27.963Z,20.87
2023-05-21T08:55:56.192Z,21.08
2023-05-21T08:58:22.968Z,21.41
2023-05-21T09:00:49.500Z,21.59
2023-05-21T09:03:16.661Z,21.77
2023-05-21T09:05:45.046Z,21.93
2023-05-21T09:08:21.753Z,22.13
2023-05-21T09:10:51.392Z,22.26
2023-05-21T09:13:19.286Z,22.43
2023-05-21T09:15:46.906Z,22.50
2023-05-21T09:18:14.133Z,22.70
2023-05-21T09:20:41.713Z,22.85
2023-05-21T09:23:16.416Z,22.97
2023-05-21T09:25:46.797Z,23.00
2023-05-21T09:28:15.168Z,23.14
2023-05-21T09:30:46.464Z,23.21
2023-05-21T09:33:13.236Z,23.21
2023-05-21T09:35:47.124Z,23.44
2023-05-21T09:38:13.567Z,23.56
2023-05-21T09:40:47.544Z,23.66
2023-05-21T09:43:16.060Z,23.80
2023-05-21T09:45:57.772Z,23.81
2023-05-21T09:48:42.424Z,23.73
2023-05-21T09:51:14.383Z,23.78
2023-05-21T09:53:45.139Z,23.81
2023-05-21T09:56:11.616Z,23.93
2023-05-21T09:58:38.601Z,24.17
2023-05-21T10:01:06.323Z,24.38
2023-05-21T10:03:38.700Z,24.64
2023-05-21T10:06:08.026Z,24.73
2023-05-21T10:08:38.502Z,24.62
2023-05-21T10:11:05.835Z,24.70
2023-05-21T10:13:39.558Z,24.57
2023-05-21T10:16:06.603Z,24.46
2023-05-21T10:18:33.664Z,24.36
2023-05-21T10:21:00.974Z,24.44
2023-05-21T10:23:29.015Z,24.51
2023-05-21T10:25:56.748Z,24.67
2023-05-21T10:28:24.135Z,24.48
2023-05-21T10:30:51.745Z,24.55
2023-05-21T10:33:18.304Z,24.75
2023-05-21T10:35:47.884Z,24.98
2023-05-21T10:38:16.732Z,25.03
2023-05-21T10:40:43.419Z,24.86
2023-05-21T10:43:40.744Z,24.67
2023-05-21T10:46:25.807Z,24.53
2023-05-21T10:49:25.344Z,24.56
2023-05-21T10:52:07.382Z,24.71
2023-05-21T10:54:55.684Z,24.66
2023-05-21T10:57:37.007Z,24.78
2023-05-21T11:00:06.056Z,25.07
2023-05-21T11:02:32.825Z,25.09
2023-05-21T11:05:00.776Z,24.64
2023-05-21T11:07:58.667Z,24.53
2023-05-21T11:10:41.446Z,24.48
2023-05-21T11:13:12.381Z,24.56
2023-05-21T11:15:57.564Z,24.70
2023-05-21T11:18:46.583Z,24.39
2023-05-21T11:21:17.579Z,24.72
2023-05-21T11:23:53.894Z,25.44
2023-05-21T11:26:24.743Z,25.62
2023-05-21T11:29:06.183Z,26.10
2023-05-21T11:31:38.446Z,26.31
2023-05-21T11:34:11.253Z,26.44
2023-05-21T11:36:38.682Z,26.47
2023-05-21T11:39:10.832Z,26.38
2023-05-21T11:42:03.773Z,26.71
2023-05-21T11:44:43.732Z,26.94
2023-05-21T11:47:12.281Z,27.12
2023-05-21T11:49:39.300Z,27.10
2023-05-21T11:52:07.332Z,27.13
2023-05-21T11:54:40.744Z,27.31
2023-05-21T11:57:08.016Z,27.43
2023-05-21T11:59:35.201Z,27.40
2023-05-21T12:02:02.950Z,27.37
2023-05-21T12:04:36.375Z,27.65
2023-05-21T12:07:07.364Z,27.79
2023-05-21T12:09:47.927Z,27.52
2023-05-21T12:12:16.863Z,27.58
2023-05-21T12:14:47.920Z,27.63
2023-05-21T12:17:19.739Z,27.88
2023-05-21T12:19:46.846Z,28.14
2023-05-21T12:22:15.429Z,28.14
2023-05-21T12:24:43.823Z,28.38
2023-05-21T12:27:13.213Z,28.57
2023-05-21T12:29:42.781Z,28.63
2023-05-21T12:32:19.854Z,28.71
2023-05-21T12:34:48.624Z,28.47
2023-05-21T12:37:17.544Z,28.13
2023-05-21T12:39:45.420Z,27.78
2023-05-21T12:42:12.740Z,27.91
2023-05-21T12:44:47.506Z,28.20
2023-05-21T12:47:14.250Z,27.88
2023-05-21T12:49:46.404Z,27.93
2023-05-21T12:52:13.626Z,28.40
2023-05-21T12:54:43.201Z,28.82
2023-05-21T12:57:18.433Z,28.43
2023-05-21T12:59:56.522Z,28.24
2023-05-21T13:02:27.403Z,28.03
2023-05-21T13:05:24.389Z,28.00
2023-05-21T13:07:51.576Z,28.14
2023-05-21T13:10:18.128Z,28.25
2023-05-21T13:12:45.256Z,28.45
2023-05-21T13:15:12.355Z,28.68
2023-05-21T13:17:38.863Z,28.55
2023-05-21T13:20:15.077Z,28.64
2023-05-21T13:22:42.985Z,28.88
2023-05-21T13:25:11.263Z,28.89
2023-05-21T13:27:38.526Z,28.66
2023-05-21T13:30:06.579Z,28.32
2023-05-21T13:32:33.009Z,28.35
2023-05-21T13:34:59.589Z,28.47
2023-05-21T13:37:26.354Z,28.72
2023-05-21T13:39:52.816Z,28.83
2023-05-21T13:42:19.777Z,28.74
2023-05-21T13:44:47.636Z,28.60
2023-05-21T13:47:14.110Z,28.91
2023-05-21T13:49:41.012Z,29.27
2023-05-21T13:52:08.955Z,29.25
2023-05-21T13:54:36.210Z,29.36
2023-05-21T13:57:03.366Z,29.25
2023-05-21T13:59:32.604Z,29.15
2023-05-21T14:02:00.347Z,29.45
2023-05-21T14:04:26.978Z,29.40
2023-05-21T14:06:53.786Z,29.55
2023-05-21T14:09:20.414Z,29.56
2023-05-21T14:11:47.075Z,29.50
2023-05-21T14:14:18.729Z,29.58
2023-05-21T14:16:48.646Z,29.69
2023-05-21T14:19:15.506Z,29.58
2023-05-21T14:21:42.613Z,29.58
2023-05-21T14:24:09.550Z,29.59
2023-05-21T14:26:37.779Z,29.59
2023-05-21T14:29:04.282Z,29.63
2023-05-21T14:31:30.979Z,29.40
2023-05-21T14:33:58.582Z,29.49
2023-05-21T14:36:25.041Z,29.64
2023-05-21T14:38:51.564Z,29.76
2023-05-21T14:41:18.061Z,29.51
2023-05-21T14:43:44.563Z,29.60
2023-05-21T14:46:11.095Z,29.45
2023-05-21T14:48:37.578Z,29.20
2023-05-21T14:51:04.074Z,29.18
2023-05-21T14:53:30.520Z,29.32
2023-05-21T14:55:56.985Z,29.19
2023-05-21T14:58:23.430Z,29.33
2023-05-21T15:00:49.881Z,29.29
2023-05-21T15:03:16.790Z,29.18
2023-05-21T15:05:43.285Z,29.15
2023-05-21T15:08:09.799Z,28.78
2023-05-21T15:10:36.265Z,28.80
2023-05-21T15:13:02.736Z,28.97
2023-05-21T15:15:29.194Z,29.12
2023-05-21T15:17:57.791Z,29.16
2023-05-21T15:20:24.394Z,28.80
2023-05-21T15:22:53.444Z,28.24
2023-05-21T15:25:21.474Z,27.97
2023-05-21T15:27:48.915Z,27.85
2023-05-21T15:30:17.118Z,27.86
2023-05-21T15:32:43.525Z,28.05
2023-05-21T15:35:10.142Z,28.09
2023-05-21T15:37:36.588Z,28.04
2023-05-21T15:40:03.227Z,27.93
2023-05-21T15:42:31.570Z,27.79
2023-05-21T15:44:58.279Z,27.82
2023-05-21T15:47:24.854Z,27.82
2023-05-21T15:49:51.588Z,27.75
2023-05-21T15:52:19.809Z,27.69
2023-05-21T15:54:46.967Z,27.69
2023-05-21T15:57:13.502Z,27.62
2023-05-21T15:59:40.139Z,27.49
2023-05-21T16:02:07.834Z,27.28
2023-05-21T16:04:34.595Z,27.27
2023-05-21T16:07:01.125Z,27.11
2023-05-21T16:09:27.606Z,27.35
2023-05-21T16:11:54.033Z,27.33
2023-05-21T16:14:20.620Z,26.95
2023-05-21T16:16:47.085Z,26.89
2023-05-21T16:19:13.607Z,26.84
2023-05-21T16:21:40.180Z,26.67
2023-05-21T16:24:06.732Z,26.74
2023-05-21T16:26:33.231Z,26.65
2023-05-21T16:29:02.256Z,26.66
2023-05-21T16:31:29.076Z,26.80
2023-05-21T16:33:55.793Z,27.03
2023-05-21T16:36:22.442Z,27.17
2023-05-21T16:38:48.961Z,27.19
2023-05-21T16:41:15.600Z,27.21
2023-05-21T16:43:42.114Z,27.00
2023-05-21T16:46:08.721Z,27.01
2023-05-21T16:48:37.358Z,27.21
2023-05-21T16:51:04.599Z,27.29
2023-05-21T16:53:31.020Z,27.06
2023-05-21T16:55:57.556Z,27.14
2023-05-21T16:58:24.452Z,27.05
2023-05-21T17:00:50.942Z,27.10
2023-05-21T17:03:17.535Z,27.08
2023-05-21T17:05:44.089Z,26.90
2023-05-21T17:08:10.509Z,26.82
2023-05-21T17:10:36.962Z,26.81
2023-05-21T17:13:17.690Z,26.79
2023-05-21T17:15:47.691Z,26.75
2023-05-21T17:18:14.286Z,26.75
2023-05-21T17:20:41.069Z,26.46
2023-05-21T17:23:07.592Z,26.37
2023-05-21T17:25:34.636Z,26.19
2023-05-21T17:28:01.366Z,26.37
2023-05-21T17:30:27.979Z,26.58
2023-05-21T17:32:54.623Z,26.50
2023-05-21T17:35:21.103Z,26.47
2023-05-21T17:37:48.058Z,26.31
2023-05-21T17:40:14.570Z,26.20
2023-05-21T17:42:41.064Z,26.14
2023-05-21T17:45:07.886Z,25.92
2023-05-21T17:47:34.556Z,26.01
2023-05-21T17:50:01.129Z,25.89
2023-05-21T17:52:27.570Z,25.69
2023-05-21T17:54:55.340Z,25.81
2023-05-21T17:57:21.795Z,25.83
2023-05-21T17:59:48.461Z,25.58
2023-05-21T18:02:14.993Z,25.38
2023-05-21T18:04:41.528Z,25.30
2023-05-21T18:07:08.058Z,25.18
2023-05-21T18:09:34.568Z,24.80
2023-05-21T18:12:02.895Z,24.37
2023-05-21T18:14:29.399Z,23.99
2023-05-21T18:16:56.014Z,23.72
2023-05-21T18:19:22.617Z,23.69
2023-05-21T18:21:49.503Z,23.57
2023-05-21T18:24:16.002Z,23.37
2023-05-21T18:26:43.444Z,23.09
2023-05-21T18:29:11.326Z,22.90
2023-05-21T18:31:37.936Z,22.83
2023-05-21T18:34:04.526Z,22.65
2023-05-21T18:36:38.389Z,22.45
2023-05-21T18:39:09.990Z,22.29
2023-05-21T18:41:37.329Z,22.23
2023-05-21T18:44:04.129Z,22.09
2023-05-21T18:46:31.669Z,21.91
2023-05-21T18:49:00.154Z,21.75
2023-05-21T18:51:26.631Z,21.67
2023-05-21T18:53:53.192Z,21.63
2023-05-21T18:56:19.637Z,21.53
2023-05-21T18:58:46.256Z,21.44
2023-05-21T19:01:13.069Z,21.34
2023-05-21T19:03:39.570Z,21.32
2023-05-21T19:06:06.007Z,21.11
2023-05-21T19:08:32.479Z,20.92
2023-05-21T19:10:58.983Z,20.71
2023-05-21T19:13:26.259Z,20.61
2023-05-21T19:15:52.769Z,20.44
2023-05-21T19:18:19.211Z,20.38
2023-05-21T19:20:45.603Z,20.36
2023-05-21T19:23:12.287Z,20.26
2023-05-21T19:25:38.728Z,20.12
2023-05-21T19:28:05.258Z,20.07
2023-05-21T19:30:34.891Z,20.02
2023-05-21T19:33:01.864Z,19.89
2023-05-21T19:35:28.541Z,19.84
2023-05-21T19:37:59.532Z,19.73
2023-05-21T19:40:27.138Z,19.56
2023-05-21T19:42:53.533Z,19.49
2023-05-21T19:45:21.486Z,19.41
2023-05-21T19:47:48.118Z,19.37
2023-05-21T19:50:14.576Z,19.28
2023-05-21T19:52:41.171Z,19.11
2023-05-21T19:55:10.182Z,18.99
2023-05-21T19:57:37.173Z,18.93
2023-05-21T20:00:05.339Z,18.81
2023-05-21T20:02:32.139Z,18.79
2023-05-21T20:04:59.227Z,18.73
2023-05-21T20:07:25.841Z,18.67
2023-05-21T20:09:52.449Z,18.58
2023-05-21T20:12:19.395Z,18.53
2023-05-21T20:14:47.429Z,18.50
2023-05-21T20:17:14.558Z,18.45
2023-05-21T20:19:41.244Z,18.36
2023-05-21T20:22:07.686Z,18.29
2023-05-21T20:24:34.160Z,18.21
2023-05-21T20:27:01.539Z,18.16
2023-05-21T20:29:28.746Z,18.04
2023-05-21T20:31:55.386Z,17.91
2023-05-21T20:34:21.924Z,17.83
2023-05-21T20:36:49.239Z,17.81
2023-05-21T20:39:16.086Z,17.73
2023-05-21T20:41:44.831Z,17.70
2023-05-21T20:44:12.045Z,17.64
2023-05-21T20:46:38.918Z,17.59
2023-05-21T20:49:05.892Z,17.54
2023-05-21T20:51:32.817Z,17.47
2023-05-21T20:53:59.319Z,17.41
2023-05-21T20:56:40.753Z,17.41
2023-05-21T20:59:09.929Z,17.39
2023-05-21T21:01:37.865Z,17.34
2023-05-21T21:04:05.064Z,17.29
2023-05-21T21:06:31.897Z,17.25
2023-05-21T21:08:58.558Z,17.20
2023-05-21T21:11:25.300Z,17.21
2023-05-21T21:13:51.951Z,17.18
2023-05-21T21:16:18.713Z,17.09
2023-05-21T21:18:46.897Z,17.07
2023-05-21T21:21:13.803Z,17.04
2023-05-21T21:23:40.660Z,17.01
2023-05-21T21:26:07.240Z,16.98
2023-05-21T21:28:33.737Z,16.95
2023-05-21T21:31:00.509Z,16.91
2023-05-21T21:33:27.056Z,16.91
2023-05-21T21:35:53.647Z,16.88
2023-05-21T21:38:20.304Z,16.82
2023-05-21T21:40:46.877Z,16.80
2023-05-21T21:43:13.382Z,16.83
2023-05-21T21:45:39.932Z,16.81
2023-05-21T21:48:06.851Z,16.80
2023-05-21T21:50:33.401Z,16.76
2023-05-21T21:53:01.118Z,16.73
2023-05-21T21:55:27.692Z,16.69
2023-05-21T21:57:54.265Z,16.64
2023-05-21T22:00:21.004Z,16.60
2023-05-21T22:02:47.617Z,16.60
2023-05-21T22:05:14.974Z,16.54
2023-05-21T22:07:47.847Z,16.49
2023-05-21T22:10:17.667Z,16.48
2023-05-21T22:12:45.927Z,16.47
2023-05-21T22:15:20.411Z,16.41
2023-05-21T22:17:48.294Z,16.38
2023-05-21T22:20:15.094Z,16.35
2023-05-21T22:22:41.508Z,16.34
2023-05-21T22:25:08.342Z,16.30
2023-05-21T22:27:34.972Z,16.32
2023-05-21T22:30:01.381Z,16.28
2023-05-21T22:32:27.835Z,16.28
2023-05-21T22:34:54.407Z,16.24
2023-05-21T22:37:21.206Z,16.19
2023-05-21T22:39:47.643Z,16.15
2023-05-21T22:42:14.119Z,16.13
2023-05-21T22:44:40.923Z,16.09
2023-05-21T22:47:09.364Z,16.03
2023-05-21T22:49:38.014Z,15.99
2023-05-21T22:52:06.235Z,15.97
2023-05-21T22:54:32.923Z,15.99
2023-05-21T22:57:01.091Z,15.99
2023-05-21T22:59:32.067Z,15.97
2023-05-21T23:01:59.119Z,15.99
2023-05-21T23:04:42.758Z,16.00
2023-05-21T23:07:10.787Z,16.00
2023-05-21T23:09:37.253Z,16.03
2023-05-21T23:12:04.066Z,16.05
2023-05-21T23:14:30.739Z,16.04
2023-05-21T23:17:02.166Z,16.09
2023-05-21T23:19:29.544Z,16.15
2023-05-21T23:21:56.453Z,16.20
2023-05-21T23:24:23.118Z,16.23
2023-05-21T23:26:49.845Z,16.28
2023-05-21T23:29:16.431Z,16.28
2023-05-21T23:31:43.675Z,16.24
2023-05-21T23:34:10.297Z,16.27
2023-05-21T23:36:36.794Z,16.32
2023-05-21T23:39:03.497Z,16.35
2023-05-21T23:41:30.073Z,16.28
2023-05-21T23:43:56.505Z,16.12
2023-05-21T23:46:23.299Z,16.01
2023-05-21T23:48:49.841Z,15.96
2023-05-21T23:51:18.214Z,15.96
2023-05-21T23:53:45.101Z,15.87
2023-05-21T23:56:11.535Z,15.79
2023-05-21T23:58:38.022Z,15.75
